DLH882 EDDF-EETN
Flight info
| Callsign | DLH882 |
|---|---|
| Flight time | 1h 55m |
| Altitude | 37000 |
| Route | MARUN9S MARUN Y150 TOLGI DCT GARLU DCT BANUB Z131 GOSOT DCT EVONA DCT ETHUV DCT ADBIB DCT SULUN |
| Aircraft | A320/M-SDE2E3FGIJ1LORWXYZ/HB1 |
Departure
| Time | 2026-05-06 12:06 |
|---|---|
| Airport | Frankfurt Main Airport (EDDF) |
Arrival
| Time | 2026-05-06 14:01 |
|---|---|
| Airport | Lennart Meri Tallinn Airport (EETN) |
| Time | Latitude | Longitude | Altitude | Speed | Heading |
|---|---|---|---|---|---|
| 2026-05-06 11:51 | 50.03620 | 8.53791 | 355 ft | 0 kts | 158° |
| 2026-05-06 12:01 | 50.03608 | 8.53794 | 346 ft | 5 kts | 175° |
| 2026-05-06 12:01 | 50.03577 | 8.53804 | 346 ft | 4 kts | 170° |
| 2026-05-06 12:01 | 50.03531 | 8.53775 | 352 ft | 11 kts | 227° |
| 2026-05-06 12:01 | 50.03500 | 8.53653 | 351 ft | 13 kts | 250° |
| 2026-05-06 12:02 | 50.03467 | 8.53512 | 351 ft | 15 kts | 250° |
| 2026-05-06 12:02 | 50.03430 | 8.53359 | 353 ft | 16 kts | 249° |
| 2026-05-06 12:02 | 50.03387 | 8.53187 | 351 ft | 17 kts | 249° |
| 2026-05-06 12:02 | 50.03351 | 8.53036 | 347 ft | 14 kts | 250° |
| 2026-05-06 12:03 | 50.03315 | 8.52882 | 351 ft | 16 kts | 250° |
| 2026-05-06 12:03 | 50.03288 | 8.52773 | 353 ft | 2 kts | 249° |
| 2026-05-06 12:03 | 50.03286 | 8.52762 | 350 ft | 0 kts | 249° |
| 2026-05-06 12:03 | 50.03285 | 8.52761 | 350 ft | 0 kts | 249° |
| 2026-05-06 12:04 | 50.03283 | 8.52753 | 348 ft | 4 kts | 249° |
| 2026-05-06 12:04 | 50.03272 | 8.52705 | 351 ft | 8 kts | 253° |
| 2026-05-06 12:04 | 50.03267 | 8.52619 | 346 ft | 3 kts | 257° |
| 2026-05-06 12:04 | 50.03244 | 8.52595 | 346 ft | 5 kts | 193° |
| 2026-05-06 12:05 | 50.03202 | 8.52596 | 349 ft | 8 kts | 178° |
| 2026-05-06 12:05 | 50.02996 | 8.52597 | 346 ft | 64 kts | 180° |
| 2026-05-06 12:05 | 50.02325 | 8.52603 | 353 ft | 126 kts | 180° |
| 2026-05-06 12:05 | 50.01321 | 8.52552 | 633 ft | 149 kts | 184° |
| 2026-05-06 12:06 | 50.00635 | 8.52550 | 1130 ft | 149 kts | 181° |
| 2026-05-06 12:06 | 49.99580 | 8.52565 | 1839 ft | 157 kts | 182° |
| 2026-05-06 12:06 | 49.98423 | 8.52469 | 2264 ft | 177 kts | 195° |
| 2026-05-06 12:06 | 49.97257 | 8.51576 | 2630 ft | 199 kts | 221° |
| 2026-05-06 12:07 | 49.96211 | 8.50016 | 3210 ft | 213 kts | 224° |
| 2026-05-06 12:07 | 49.95130 | 8.48384 | 3990 ft | 219 kts | 224° |
| 2026-05-06 12:07 | 49.94028 | 8.46727 | 4829 ft | 222 kts | 224° |
| 2026-05-06 12:07 | 49.92914 | 8.45059 | 5577 ft | 231 kts | 224° |
| 2026-05-06 12:08 | 49.91701 | 8.43238 | 6003 ft | 252 kts | 224° |
| 2026-05-06 12:08 | 49.90416 | 8.41314 | 6748 ft | 260 kts | 224° |
| 2026-05-06 12:08 | 49.89107 | 8.39361 | 7649 ft | 264 kts | 224° |
| 2026-05-06 12:08 | 49.87938 | 8.37132 | 8571 ft | 269 kts | 243° |
| 2026-05-06 12:09 | 49.87446 | 8.34327 | 9473 ft | 275 kts | 266° |
| 2026-05-06 12:09 | 49.87783 | 8.31379 | 10266 ft | 286 kts | 290° |
| 2026-05-06 12:09 | 49.88797 | 8.28608 | 10570 ft | 311 kts | 300° |
| 2026-05-06 12:09 | 49.90004 | 8.25697 | 11102 ft | 325 kts | 300° |
| 2026-05-06 12:10 | 49.91290 | 8.22760 | 11884 ft | 332 kts | 307° |
| 2026-05-06 12:10 | 49.93049 | 8.20377 | 12683 ft | 343 kts | 327° |
| 2026-05-06 12:10 | 49.95294 | 8.19027 | 13480 ft | 352 kts | 347° |
| 2026-05-06 12:10 | 49.97730 | 8.18949 | 14168 ft | 360 kts | 8° |
| 2026-05-06 12:11 | 50.00120 | 8.20181 | 14851 ft | 365 kts | 23° |
| 2026-05-06 12:11 | 50.02456 | 8.21808 | 15539 ft | 369 kts | 24° |
| 2026-05-06 12:11 | 50.04803 | 8.23455 | 16215 ft | 372 kts | 24° |
| 2026-05-06 12:11 | 50.07181 | 8.25127 | 16824 ft | 377 kts | 24° |
| 2026-05-06 12:12 | 50.09594 | 8.26826 | 17451 ft | 381 kts | 24° |
| 2026-05-06 12:12 | 50.12027 | 8.28535 | 18097 ft | 385 kts | 24° |
| 2026-05-06 12:12 | 50.14486 | 8.30257 | 18638 ft | 389 kts | 23° |
| 2026-05-06 12:12 | 50.16975 | 8.31995 | 19175 ft | 393 kts | 23° |
| 2026-05-06 12:13 | 50.19477 | 8.33741 | 19732 ft | 396 kts | 23° |
| 2026-05-06 12:13 | 50.22006 | 8.35510 | 20266 ft | 399 kts | 23° |
| 2026-05-06 12:13 | 50.24524 | 8.37276 | 20795 ft | 403 kts | 23° |
| 2026-05-06 12:13 | 50.27091 | 8.39082 | 21306 ft | 406 kts | 22° |
| 2026-05-06 12:14 | 50.29707 | 8.40838 | 21812 ft | 409 kts | 18° |
| 2026-05-06 12:14 | 50.32402 | 8.42306 | 22314 ft | 412 kts | 17° |
| 2026-05-06 12:14 | 50.35124 | 8.43785 | 22819 ft | 416 kts | 17° |
| 2026-05-06 12:14 | 50.37882 | 8.45285 | 23235 ft | 421 kts | 17° |
| 2026-05-06 12:15 | 50.40348 | 8.46630 | 23609 ft | 425 kts | 17° |
| 2026-05-06 12:15 | 50.43156 | 8.48167 | 24052 ft | 428 kts | 17° |
| 2026-05-06 12:15 | 50.45944 | 8.49696 | 24458 ft | 431 kts | 17° |
| 2026-05-06 12:15 | 50.48782 | 8.51231 | 24875 ft | 433 kts | 16° |
| 2026-05-06 12:16 | 50.51660 | 8.52680 | 25286 ft | 434 kts | 14° |
| 2026-05-06 12:16 | 50.54562 | 8.54059 | 25682 ft | 437 kts | 14° |
| 2026-05-06 12:16 | 50.57490 | 8.55414 | 26115 ft | 439 kts | 14° |
| 2026-05-06 12:16 | 50.60428 | 8.56767 | 26549 ft | 441 kts | 14° |
| 2026-05-06 12:17 | 50.63387 | 8.58143 | 26965 ft | 444 kts | 14° |
| 2026-05-06 12:17 | 50.66351 | 8.59543 | 27356 ft | 446 kts | 14° |
| 2026-05-06 12:17 | 50.69333 | 8.60979 | 27732 ft | 448 kts | 15° |
| 2026-05-06 12:17 | 50.72325 | 8.62438 | 28113 ft | 450 kts | 15° |
| 2026-05-06 12:18 | 50.75331 | 8.63903 | 28480 ft | 453 kts | 15° |
| 2026-05-06 12:18 | 50.78303 | 8.65605 | 28845 ft | 457 kts | 23° |
| 2026-05-06 12:18 | 50.81096 | 8.68036 | 29206 ft | 461 kts | 33° |
| 2026-05-06 12:18 | 50.83602 | 8.71129 | 29555 ft | 463 kts | 43° |
| 2026-05-06 12:19 | 50.85807 | 8.74860 | 29883 ft | 466 kts | 52° |
| 2026-05-06 12:19 | 50.87786 | 8.78964 | 30162 ft | 468 kts | 53° |
| 2026-05-06 12:19 | 50.89758 | 8.83080 | 30443 ft | 470 kts | 53° |
| 2026-05-06 12:19 | 50.91737 | 8.87218 | 30733 ft | 472 kts | 53° |
| 2026-05-06 12:20 | 50.93697 | 8.91323 | 31011 ft | 474 kts | 53° |
| 2026-05-06 12:20 | 50.95695 | 8.95514 | 31278 ft | 476 kts | 53° |
| 2026-05-06 12:20 | 50.97692 | 8.99712 | 31646 ft | 475 kts | 54° |
| 2026-05-06 12:20 | 50.99684 | 9.03903 | 32047 ft | 474 kts | 54° |
| 2026-05-06 12:21 | 51.01671 | 9.08083 | 32462 ft | 472 kts | 54° |
| 2026-05-06 12:21 | 51.03645 | 9.12247 | 32835 ft | 471 kts | 54° |
| 2026-05-06 12:21 | 51.05592 | 9.16369 | 33165 ft | 471 kts | 54° |
| 2026-05-06 12:21 | 51.07598 | 9.20482 | 33513 ft | 472 kts | 49° |
| 2026-05-06 12:22 | 51.09955 | 9.24135 | 33839 ft | 472 kts | 39° |
| 2026-05-06 12:22 | 51.12647 | 9.27118 | 34115 ft | 472 kts | 29° |
| 2026-05-06 12:22 | 51.15612 | 9.29359 | 34390 ft | 471 kts | 19° |
| 2026-05-06 12:22 | 51.18751 | 9.30806 | 34655 ft | 469 kts | 10° |
| 2026-05-06 12:23 | 51.21955 | 9.31894 | 34944 ft | 469 kts | 10° |
| 2026-05-06 12:23 | 51.25151 | 9.32996 | 35242 ft | 468 kts | 11° |
| 2026-05-06 12:23 | 51.28332 | 9.34102 | 35530 ft | 468 kts | 11° |
| 2026-05-06 12:23 | 51.31475 | 9.35197 | 35784 ft | 468 kts | 11° |
| 2026-05-06 12:24 | 51.34665 | 9.36312 | 36044 ft | 468 kts | 11° |
| 2026-05-06 12:24 | 51.37855 | 9.37429 | 36283 ft | 468 kts | 11° |
| 2026-05-06 12:24 | 51.41036 | 9.38538 | 36517 ft | 468 kts | 11° |
| 2026-05-06 12:24 | 51.44225 | 9.39648 | 36739 ft | 468 kts | 11° |
| 2026-05-06 12:25 | 51.50580 | 9.41873 | 36783 ft | 465 kts | 11° |
| 2026-05-06 12:25 | 51.56900 | 9.44084 | 36784 ft | 464 kts | 11° |
| 2026-05-06 12:26 | 51.63171 | 9.46292 | 36790 ft | 464 kts | 11° |
| 2026-05-06 12:26 | 51.69489 | 9.48531 | 36792 ft | 464 kts | 11° |
| 2026-05-06 12:27 | 51.75807 | 9.50776 | 36794 ft | 464 kts | 11° |
| 2026-05-06 12:27 | 51.81969 | 9.53893 | 36807 ft | 466 kts | 26° |
| 2026-05-06 12:28 | 51.87227 | 9.59865 | 36803 ft | 466 kts | 44° |
| 2026-05-06 12:28 | 51.91930 | 9.67153 | 36816 ft | 467 kts | 44° |
| 2026-05-06 12:29 | 51.96653 | 9.74432 | 36817 ft | 467 kts | 44° |
| 2026-05-06 12:29 | 52.01339 | 9.81660 | 36821 ft | 467 kts | 44° |
| 2026-05-06 12:30 | 52.06061 | 9.88976 | 36811 ft | 468 kts | 44° |
| 2026-05-06 12:30 | 52.10761 | 9.96314 | 36826 ft | 468 kts | 44° |
| 2026-05-06 12:31 | 52.15436 | 10.03652 | 36838 ft | 469 kts | 44° |
| 2026-05-06 12:31 | 52.20143 | 10.11042 | 36835 ft | 469 kts | 44° |
| 2026-05-06 12:32 | 52.24815 | 10.18399 | 36840 ft | 469 kts | 44° |
| 2026-05-06 12:32 | 52.29506 | 10.25802 | 36842 ft | 469 kts | 44° |
| 2026-05-06 12:33 | 52.34195 | 10.33236 | 36839 ft | 468 kts | 44° |
| 2026-05-06 12:33 | 52.38869 | 10.40661 | 36834 ft | 468 kts | 44° |
| 2026-05-06 12:34 | 52.43561 | 10.48133 | 36818 ft | 478 kts | 44° |
| 2026-05-06 12:34 | 52.48365 | 10.55812 | 36816 ft | 488 kts | 44° |
| 2026-05-06 12:35 | 52.53237 | 10.63635 | 36831 ft | 491 kts | 45° |
| 2026-05-06 12:35 | 52.58118 | 10.71517 | 36826 ft | 491 kts | 45° |
| 2026-05-06 12:36 | 52.62897 | 10.79447 | 36829 ft | 491 kts | 46° |
| 2026-05-06 12:36 | 52.67666 | 10.87512 | 36837 ft | 491 kts | 46° |
| 2026-05-06 12:37 | 52.72439 | 10.95603 | 36841 ft | 491 kts | 46° |
| 2026-05-06 12:37 | 52.77226 | 11.03682 | 36851 ft | 491 kts | 46° |
| 2026-05-06 12:38 | 52.81977 | 11.11728 | 36847 ft | 491 kts | 46° |
| 2026-05-06 12:38 | 52.86743 | 11.19838 | 36834 ft | 491 kts | 46° |
| 2026-05-06 12:39 | 52.91522 | 11.27993 | 36840 ft | 491 kts | 46° |
| 2026-05-06 12:39 | 52.96271 | 11.36142 | 36841 ft | 491 kts | 46° |
| 2026-05-06 12:40 | 53.00995 | 11.44280 | 36843 ft | 491 kts | 46° |
| 2026-05-06 12:40 | 53.05747 | 11.52463 | 36844 ft | 492 kts | 46° |
| 2026-05-06 12:41 | 53.10504 | 11.60687 | 36846 ft | 492 kts | 46° |
| 2026-05-06 12:41 | 53.15254 | 11.68936 | 36851 ft | 493 kts | 46° |
| 2026-05-06 12:42 | 53.19996 | 11.77183 | 36863 ft | 492 kts | 46° |
| 2026-05-06 12:42 | 53.24687 | 11.85399 | 36847 ft | 491 kts | 47° |
| 2026-05-06 12:43 | 53.29405 | 11.93686 | 36845 ft | 491 kts | 46° |
| 2026-05-06 12:43 | 53.34115 | 12.01967 | 36851 ft | 491 kts | 46° |
| 2026-05-06 12:44 | 53.38829 | 12.10287 | 36859 ft | 492 kts | 47° |
| 2026-05-06 12:44 | 53.43504 | 12.18587 | 36867 ft | 491 kts | 47° |
| 2026-05-06 12:45 | 53.48191 | 12.26942 | 36868 ft | 491 kts | 47° |
| 2026-05-06 12:46 | 53.55217 | 12.39474 | 36870 ft | 490 kts | 47° |
| 2026-05-06 12:46 | 53.59873 | 12.47814 | 36884 ft | 490 kts | 47° |
| 2026-05-06 12:47 | 53.63749 | 12.54788 | 36879 ft | 490 kts | 47° |
| 2026-05-06 12:47 | 53.68405 | 12.63204 | 36859 ft | 489 kts | 47° |
| 2026-05-06 12:48 | 53.73061 | 12.71647 | 36859 ft | 490 kts | 47° |
| 2026-05-06 12:48 | 53.77669 | 12.80036 | 36857 ft | 490 kts | 47° |
| 2026-05-06 12:49 | 53.82318 | 12.88514 | 36870 ft | 490 kts | 47° |
| 2026-05-06 12:49 | 53.86951 | 12.96991 | 36877 ft | 490 kts | 47° |
| 2026-05-06 12:50 | 53.91576 | 13.05487 | 36878 ft | 489 kts | 47° |
| 2026-05-06 12:50 | 53.96165 | 13.13951 | 36882 ft | 489 kts | 48° |
| 2026-05-06 12:51 | 54.00766 | 13.22474 | 36880 ft | 489 kts | 48° |
| 2026-05-06 12:51 | 54.05365 | 13.31013 | 36874 ft | 489 kts | 48° |
| 2026-05-06 12:52 | 54.09936 | 13.39516 | 36872 ft | 489 kts | 48° |
| 2026-05-06 12:52 | 54.14516 | 13.48087 | 36872 ft | 489 kts | 48° |
| 2026-05-06 12:53 | 54.19097 | 13.56690 | 36876 ft | 489 kts | 48° |
| 2026-05-06 12:53 | 54.23679 | 13.65319 | 36895 ft | 489 kts | 48° |
| 2026-05-06 12:54 | 54.28219 | 13.73907 | 36904 ft | 489 kts | 48° |
| 2026-05-06 12:54 | 54.32793 | 13.82567 | 36906 ft | 489 kts | 48° |
| 2026-05-06 12:55 | 54.37366 | 13.91254 | 36912 ft | 489 kts | 49° |
| 2026-05-06 12:55 | 54.41887 | 13.99892 | 36913 ft | 489 kts | 49° |
| 2026-05-06 12:56 | 54.46436 | 14.08624 | 36906 ft | 489 kts | 49° |
| 2026-05-06 12:56 | 54.50978 | 14.17363 | 36907 ft | 490 kts | 49° |
| 2026-05-06 12:57 | 54.55511 | 14.26123 | 36919 ft | 490 kts | 49° |
| 2026-05-06 12:57 | 54.60035 | 14.34899 | 36912 ft | 489 kts | 49° |
| 2026-05-06 12:58 | 54.64534 | 14.43650 | 36915 ft | 489 kts | 49° |
| 2026-05-06 12:58 | 54.69047 | 14.52453 | 36921 ft | 489 kts | 49° |
| 2026-05-06 12:59 | 54.73556 | 14.61273 | 36923 ft | 489 kts | 49° |
| 2026-05-06 12:59 | 54.78056 | 14.70119 | 36918 ft | 489 kts | 49° |
| 2026-05-06 13:00 | 54.82523 | 14.78925 | 36921 ft | 488 kts | 49° |
| 2026-05-06 13:00 | 54.87004 | 14.87812 | 36911 ft | 489 kts | 50° |
| 2026-05-06 13:01 | 54.91486 | 14.96745 | 36913 ft | 490 kts | 50° |
| 2026-05-06 13:01 | 54.95942 | 15.05648 | 36911 ft | 490 kts | 50° |
| 2026-05-06 13:02 | 55.00418 | 15.14600 | 36914 ft | 490 kts | 50° |
| 2026-05-06 13:02 | 55.04902 | 15.23607 | 36921 ft | 490 kts | 50° |
| 2026-05-06 13:03 | 55.09364 | 15.32613 | 36919 ft | 490 kts | 50° |
| 2026-05-06 13:03 | 55.13833 | 15.41673 | 36923 ft | 490 kts | 50° |
| 2026-05-06 13:04 | 55.18260 | 15.50684 | 36922 ft | 491 kts | 50° |
| 2026-05-06 13:04 | 55.22722 | 15.59766 | 36905 ft | 491 kts | 50° |
| 2026-05-06 13:05 | 55.27144 | 15.68814 | 36912 ft | 491 kts | 50° |
| 2026-05-06 13:05 | 55.31584 | 15.77952 | 36931 ft | 491 kts | 51° |
| 2026-05-06 13:06 | 55.36012 | 15.87114 | 36931 ft | 491 kts | 51° |
| 2026-05-06 13:06 | 55.40407 | 15.96213 | 36931 ft | 491 kts | 51° |
| 2026-05-06 13:07 | 55.44829 | 16.05396 | 36932 ft | 491 kts | 51° |
| 2026-05-06 13:07 | 55.49248 | 16.14614 | 36939 ft | 491 kts | 51° |
| 2026-05-06 13:08 | 55.53651 | 16.23843 | 36940 ft | 491 kts | 51° |
| 2026-05-06 13:08 | 55.58020 | 16.33044 | 36939 ft | 491 kts | 51° |
| 2026-05-06 13:09 | 55.62405 | 16.42300 | 36934 ft | 491 kts | 51° |
| 2026-05-06 13:09 | 55.66794 | 16.51598 | 36939 ft | 491 kts | 51° |
| 2026-05-06 13:10 | 55.71180 | 16.60920 | 36938 ft | 491 kts | 51° |
| 2026-05-06 13:10 | 55.75527 | 16.70218 | 36936 ft | 491 kts | 52° |
| 2026-05-06 13:11 | 55.79895 | 16.79591 | 36939 ft | 492 kts | 52° |
| 2026-05-06 13:11 | 55.84232 | 16.88915 | 36935 ft | 492 kts | 52° |
| 2026-05-06 13:12 | 55.88593 | 16.98331 | 36932 ft | 492 kts | 52° |
| 2026-05-06 13:12 | 55.92944 | 17.07764 | 36945 ft | 492 kts | 52° |
| 2026-05-06 13:13 | 55.97258 | 17.17163 | 36935 ft | 492 kts | 52° |
| 2026-05-06 13:13 | 56.01595 | 17.26639 | 36901 ft | 493 kts | 52° |
| 2026-05-06 13:14 | 56.05928 | 17.36152 | 36925 ft | 493 kts | 52° |
| 2026-05-06 13:14 | 56.10258 | 17.45710 | 36933 ft | 493 kts | 52° |
| 2026-05-06 13:15 | 56.14585 | 17.55281 | 36941 ft | 493 kts | 52° |
| 2026-05-06 13:15 | 56.18880 | 17.64816 | 36937 ft | 494 kts | 52° |
| 2026-05-06 13:16 | 56.23202 | 17.74448 | 36943 ft | 495 kts | 53° |
| 2026-05-06 13:16 | 56.27527 | 17.84122 | 36942 ft | 495 kts | 53° |
| 2026-05-06 13:17 | 56.31845 | 17.93825 | 36946 ft | 495 kts | 53° |
| 2026-05-06 13:17 | 56.36126 | 18.03493 | 36947 ft | 496 kts | 53° |
| 2026-05-06 13:18 | 56.40437 | 18.13263 | 36912 ft | 497 kts | 53° |
| 2026-05-06 13:18 | 56.44744 | 18.23063 | 36929 ft | 497 kts | 53° |
| 2026-05-06 13:19 | 56.49019 | 18.32843 | 36943 ft | 497 kts | 53° |
| 2026-05-06 13:19 | 56.53314 | 18.42702 | 36948 ft | 498 kts | 53° |
| 2026-05-06 13:20 | 56.57611 | 18.52583 | 36966 ft | 499 kts | 53° |
| 2026-05-06 13:20 | 56.61911 | 18.62501 | 36948 ft | 500 kts | 53° |
| 2026-05-06 13:21 | 56.66210 | 18.72465 | 36949 ft | 500 kts | 53° |
| 2026-05-06 13:21 | 56.70472 | 18.82423 | 36955 ft | 501 kts | 53° |
| 2026-05-06 13:22 | 56.74748 | 18.92454 | 36964 ft | 501 kts | 53° |
| 2026-05-06 13:22 | 56.79035 | 19.02522 | 36918 ft | 502 kts | 53° |
| 2026-05-06 13:23 | 56.83291 | 19.12563 | 36943 ft | 503 kts | 53° |
| 2026-05-06 13:23 | 56.87565 | 19.22714 | 36950 ft | 503 kts | 53° |
| 2026-05-06 13:24 | 56.91849 | 19.32908 | 36960 ft | 504 kts | 53° |
| 2026-05-06 13:24 | 56.96089 | 19.43021 | 36963 ft | 504 kts | 54° |
| 2026-05-06 13:25 | 57.00348 | 19.53249 | 36958 ft | 505 kts | 53° |
| 2026-05-06 13:25 | 57.04615 | 19.63551 | 36963 ft | 506 kts | 54° |
| 2026-05-06 13:26 | 57.08872 | 19.73874 | 36964 ft | 506 kts | 54° |
| 2026-05-06 13:26 | 57.13106 | 19.84162 | 36968 ft | 506 kts | 54° |
| 2026-05-06 13:27 | 57.16639 | 19.92797 | 36970 ft | 506 kts | 54° |
| 2026-05-06 13:27 | 57.21007 | 20.03008 | 36959 ft | 507 kts | 51° |
| 2026-05-06 13:28 | 57.25534 | 20.13028 | 36965 ft | 507 kts | 51° |
| 2026-05-06 13:28 | 57.30047 | 20.23082 | 36966 ft | 507 kts | 51° |
| 2026-05-06 13:29 | 57.34485 | 20.33221 | 36975 ft | 507 kts | 52° |
| 2026-05-06 13:29 | 57.38874 | 20.43361 | 36990 ft | 507 kts | 52° |
| 2026-05-06 13:30 | 57.43323 | 20.53660 | 36975 ft | 508 kts | 52° |
| 2026-05-06 13:30 | 57.47732 | 20.63853 | 36974 ft | 508 kts | 52° |
| 2026-05-06 13:31 | 57.52165 | 20.74132 | 36978 ft | 509 kts | 52° |
| 2026-05-06 13:31 | 57.56582 | 20.84453 | 36990 ft | 509 kts | 52° |
| 2026-05-06 13:32 | 57.61004 | 20.94810 | 36969 ft | 510 kts | 51° |
| 2026-05-06 13:32 | 57.65398 | 21.05140 | 36978 ft | 510 kts | 52° |
| 2026-05-06 13:33 | 57.69815 | 21.15587 | 36984 ft | 511 kts | 52° |
| 2026-05-06 13:33 | 57.74217 | 21.26064 | 36998 ft | 511 kts | 52° |
| 2026-05-06 13:34 | 57.78583 | 21.36498 | 37004 ft | 512 kts | 52° |
| 2026-05-06 13:34 | 57.82978 | 21.47042 | 37009 ft | 513 kts | 52° |
| 2026-05-06 13:35 | 57.87377 | 21.57625 | 37007 ft | 514 kts | 52° |
| 2026-05-06 13:35 | 57.91775 | 21.68264 | 37006 ft | 514 kts | 52° |
| 2026-05-06 13:36 | 57.96135 | 21.78863 | 37011 ft | 514 kts | 52° |
| 2026-05-06 13:36 | 58.00518 | 21.89553 | 37038 ft | 515 kts | 52° |
| 2026-05-06 13:37 | 58.04905 | 22.00302 | 36995 ft | 516 kts | 52° |
| 2026-05-06 13:37 | 58.09253 | 22.11026 | 37005 ft | 517 kts | 51° |
| 2026-05-06 13:38 | 58.13813 | 22.21501 | 37014 ft | 517 kts | 47° |
| 2026-05-06 13:38 | 58.18624 | 22.31643 | 37022 ft | 516 kts | 46° |
| 2026-05-06 13:39 | 58.23379 | 22.41693 | 35911 ft | 514 kts | 47° |
| 2026-05-06 13:39 | 58.25730 | 22.46800 | 35334 ft | 511 kts | 48° |
| 2026-05-06 13:39 | 58.28049 | 22.51922 | 34729 ft | 509 kts | 49° |
| 2026-05-06 13:39 | 58.30347 | 22.57035 | 34115 ft | 508 kts | 49° |
| 2026-05-06 13:40 | 58.32615 | 22.62087 | 33448 ft | 506 kts | 49° |
| 2026-05-06 13:40 | 58.34847 | 22.67051 | 32864 ft | 502 kts | 49° |
| 2026-05-06 13:40 | 58.37112 | 22.72082 | 32248 ft | 498 kts | 49° |
| 2026-05-06 13:40 | 58.39362 | 22.77076 | 31740 ft | 493 kts | 49° |
| 2026-05-06 13:41 | 58.41603 | 22.82055 | 31152 ft | 490 kts | 49° |
| 2026-05-06 13:41 | 58.43820 | 22.86987 | 30474 ft | 491 kts | 48° |
| 2026-05-06 13:41 | 58.46013 | 22.91872 | 30025 ft | 486 kts | 47° |
| 2026-05-06 13:41 | 58.48210 | 22.96779 | 29403 ft | 483 kts | 48° |
| 2026-05-06 13:42 | 58.50385 | 23.01661 | 28813 ft | 479 kts | 48° |
| 2026-05-06 13:42 | 58.52512 | 23.06445 | 28301 ft | 474 kts | 48° |
| 2026-05-06 13:42 | 58.54640 | 23.11248 | 27742 ft | 470 kts | 48° |
| 2026-05-06 13:42 | 58.56745 | 23.16009 | 27284 ft | 464 kts | 48° |
| 2026-05-06 13:43 | 58.58824 | 23.20696 | 26812 ft | 460 kts | 48° |
| 2026-05-06 13:43 | 58.60906 | 23.25326 | 26324 ft | 456 kts | 47° |
| 2026-05-06 13:43 | 58.62981 | 23.29903 | 25853 ft | 452 kts | 47° |
| 2026-05-06 13:43 | 58.65052 | 23.34459 | 25330 ft | 451 kts | 47° |
| 2026-05-06 13:44 | 58.67080 | 23.38929 | 24823 ft | 449 kts | 47° |
| 2026-05-06 13:44 | 58.69125 | 23.43454 | 24305 ft | 447 kts | 47° |
| 2026-05-06 13:44 | 58.71159 | 23.47984 | 23782 ft | 446 kts | 47° |
| 2026-05-06 13:44 | 58.73179 | 23.52509 | 23247 ft | 444 kts | 47° |
| 2026-05-06 13:45 | 58.75173 | 23.56996 | 22742 ft | 440 kts | 47° |
| 2026-05-06 13:45 | 58.79122 | 23.65884 | 21780 ft | 433 kts | 47° |
| 2026-05-06 13:45 | 58.81063 | 23.70257 | 21459 ft | 425 kts | 47° |
| 2026-05-06 13:46 | 58.82986 | 23.74590 | 20990 ft | 422 kts | 47° |
| 2026-05-06 13:46 | 58.84865 | 23.78835 | 20590 ft | 419 kts | 46° |
| 2026-05-06 13:46 | 58.86749 | 23.83103 | 20149 ft | 416 kts | 46° |
| 2026-05-06 13:46 | 58.88620 | 23.87350 | 19734 ft | 412 kts | 46° |
| 2026-05-06 13:47 | 58.90475 | 23.91569 | 19330 ft | 409 kts | 47° |
| 2026-05-06 13:47 | 58.92320 | 23.95777 | 18931 ft | 405 kts | 47° |
| 2026-05-06 13:47 | 58.94110 | 23.99872 | 18559 ft | 402 kts | 47° |
| 2026-05-06 13:47 | 58.95911 | 24.03993 | 18149 ft | 398 kts | 47° |
| 2026-05-06 13:48 | 58.97602 | 24.08240 | 17706 ft | 397 kts | 56° |
| 2026-05-06 13:48 | 58.99032 | 24.12786 | 17270 ft | 393 kts | 57° |
| 2026-05-06 13:48 | 59.00445 | 24.17318 | 16858 ft | 390 kts | 57° |
| 2026-05-06 13:48 | 59.01838 | 24.21802 | 16436 ft | 386 kts | 57° |
| 2026-05-06 13:49 | 59.03215 | 24.26243 | 16056 ft | 383 kts | 57° |
| 2026-05-06 13:49 | 59.04579 | 24.30658 | 15690 ft | 379 kts | 57° |
| 2026-05-06 13:49 | 59.05925 | 24.35021 | 15052 ft | 373 kts | 57° |
| 2026-05-06 13:49 | 59.07235 | 24.39274 | 14347 ft | 369 kts | 57° |
| 2026-05-06 13:50 | 59.08545 | 24.43533 | 13676 ft | 363 kts | 57° |
| 2026-05-06 13:50 | 59.09830 | 24.47722 | 13028 ft | 354 kts | 57° |
| 2026-05-06 13:50 | 59.11073 | 24.51782 | 12638 ft | 339 kts | 57° |
| 2026-05-06 13:50 | 59.12246 | 24.55621 | 12369 ft | 322 kts | 57° |
| 2026-05-06 13:51 | 59.13358 | 24.59259 | 12017 ft | 310 kts | 57° |
| 2026-05-06 13:51 | 59.14444 | 24.62810 | 11652 ft | 300 kts | 57° |
| 2026-05-06 13:51 | 59.15498 | 24.66251 | 11296 ft | 292 kts | 57° |
| 2026-05-06 13:51 | 59.16536 | 24.69645 | 10949 ft | 290 kts | 57° |
| 2026-05-06 13:52 | 59.17564 | 24.73010 | 10595 ft | 287 kts | 57° |
| 2026-05-06 13:52 | 59.18575 | 24.76337 | 10240 ft | 284 kts | 57° |
| 2026-05-06 13:52 | 59.19586 | 24.79672 | 9870 ft | 286 kts | 57° |
| 2026-05-06 13:52 | 59.20595 | 24.83010 | 9479 ft | 285 kts | 58° |
| 2026-05-06 13:53 | 59.21591 | 24.86311 | 9099 ft | 284 kts | 58° |
| 2026-05-06 13:53 | 59.22592 | 24.89630 | 8727 ft | 282 kts | 58° |
| 2026-05-06 13:53 | 59.23587 | 24.92937 | 8341 ft | 280 kts | 58° |
| 2026-05-06 13:53 | 59.24573 | 24.96214 | 7954 ft | 279 kts | 58° |
| 2026-05-06 13:54 | 59.25554 | 24.99477 | 7564 ft | 277 kts | 58° |
| 2026-05-06 13:54 | 59.26521 | 25.02694 | 7162 ft | 278 kts | 59° |
| 2026-05-06 13:54 | 59.27499 | 25.05948 | 6741 ft | 278 kts | 59° |
| 2026-05-06 13:54 | 59.28473 | 25.09201 | 6367 ft | 276 kts | 59° |
| 2026-05-06 13:55 | 59.29435 | 25.12425 | 5968 ft | 273 kts | 59° |
| 2026-05-06 13:55 | 59.30386 | 25.15608 | 5648 ft | 267 kts | 59° |
| 2026-05-06 13:55 | 59.31301 | 25.18672 | 5520 ft | 254 kts | 59° |
| 2026-05-06 13:55 | 59.32371 | 25.21338 | 5314 ft | 245 kts | 40° |
| 2026-05-06 13:56 | 59.33788 | 25.23099 | 5178 ft | 242 kts | 23° |
| 2026-05-06 13:56 | 59.35431 | 25.23850 | 4705 ft | 246 kts | 2° |
| 2026-05-06 13:56 | 59.37135 | 25.23878 | 4157 ft | 245 kts | 0° |
| 2026-05-06 13:56 | 59.38824 | 25.23823 | 3590 ft | 238 kts | 351° |
| 2026-05-06 13:57 | 59.40258 | 25.22522 | 3369 ft | 222 kts | 318° |
| 2026-05-06 13:57 | 59.41051 | 25.20095 | 3232 ft | 206 kts | 287° |
| 2026-05-06 13:57 | 59.41173 | 25.17375 | 3124 ft | 197 kts | 272° |
| 2026-05-06 13:57 | 59.41187 | 25.14715 | 2958 ft | 194 kts | 272° |
| 2026-05-06 13:58 | 59.41204 | 25.12121 | 2681 ft | 191 kts | 273° |
| 2026-05-06 13:58 | 59.41224 | 25.09522 | 2437 ft | 190 kts | 275° |
| 2026-05-06 13:58 | 59.41244 | 25.06927 | 2255 ft | 189 kts | 274° |
| 2026-05-06 13:58 | 59.41258 | 25.04401 | 2208 ft | 174 kts | 271° |
| 2026-05-06 13:59 | 59.41265 | 25.02177 | 2208 ft | 155 kts | 272° |
| 2026-05-06 13:59 | 59.41270 | 25.00112 | 2197 ft | 148 kts | 274° |
| 2026-05-06 13:59 | 59.41275 | 24.98107 | 2204 ft | 146 kts | 272° |
| 2026-05-06 13:59 | 59.41256 | 24.96069 | 1852 ft | 156 kts | 270° |
| 2026-05-06 14:00 | 59.41263 | 24.93966 | 1349 ft | 167 kts | 274° |
| 2026-05-06 14:00 | 59.41291 | 24.91622 | 835 ft | 171 kts | 273° |
| 2026-05-06 14:00 | 59.41310 | 24.89303 | 489 ft | 165 kts | 272° |
| 2026-05-06 14:00 | 59.41318 | 24.87102 | 245 ft | 156 kts | 272° |
| 2026-05-06 14:01 | 59.41317 | 24.85090 | 146 ft | 136 kts | 273° |
| 2026-05-06 14:01 | 59.41327 | 24.83479 | 142 ft | 94 kts | 270° |
| 2026-05-06 14:01 | 59.41329 | 24.82522 | 137 ft | 52 kts | 271° |
| 2026-05-06 14:01 | 59.41333 | 24.81861 | 142 ft | 46 kts | 271° |
| 2026-05-06 14:02 | 59.41335 | 24.81253 | 139 ft | 44 kts | 269° |
| 2026-05-06 14:02 | 59.41333 | 24.80772 | 137 ft | 22 kts | 271° |
| 2026-05-06 14:02 | 59.41409 | 24.80532 | 138 ft | 16 kts | 315° |
| 2026-05-06 14:02 | 59.41518 | 24.80479 | 138 ft | 18 kts | 16° |
| 2026-05-06 14:03 | 59.41649 | 24.80511 | 138 ft | 20 kts | 2° |
| 2026-05-06 14:03 | 59.41682 | 24.80464 | 138 ft | 5 kts | 254° |
| 2026-05-06 14:03 | 59.41680 | 24.80408 | 138 ft | 4 kts | 281° |
| 2026-05-06 14:03 | 59.41684 | 24.80378 | 138 ft | 3 kts | 284° |
| 2026-05-06 14:04 | 59.41689 | 24.80345 | 138 ft | 2 kts | 285° |
| 2026-05-06 14:04 | 59.41689 | 24.80341 | 138 ft | 0 kts | 285° |